sensor_id;sensor_type;location;lat;lon;timestamp;temperature;humidity
9849;DHT22;4963;51.444;6.528;2022-10-31T00:01:44;15.50;99.90
9849;DHT22;4963;51.444;6.528;2022-10-31T00:04:11;15.40;99.90
9849;DHT22;4963;51.444;6.528;2022-10-31T00:06:39;15.40;99.90
9849;DHT22;4963;51.444;6.528;2022-10-31T00:09:06;15.40;99.90
9849;DHT22;4963;51.444;6.528;2022-10-31T00:11:33;15.40;99.90
9849;DHT22;4963;51.444;6.528;2022-10-31T00:13:59;15.40;99.90
9849;DHT22;4963;51.444;6.528;2022-10-31T00:16:28;15.30;99.90
9849;DHT22;4963;51.444;6.528;2022-10-31T00:18:56;15.30;99.90
9849;DHT22;4963;51.444;6.528;2022-10-31T00:21:23;15.30;99.90
9849;DHT22;4963;51.444;6.528;2022-10-31T00:23:52;15.30;99.90
9849;DHT22;4963;51.444;6.528;2022-10-31T00:26:19;15.30;99.90
9849;DHT22;4963;51.444;6.528;2022-10-31T00:28:46;15.30;99.90
9849;DHT22;4963;51.444;6.528;2022-10-31T00:31:13;15.30;99.90
9849;DHT22;4963;51.444;6.528;2022-10-31T00:33:41;15.30;99.90
9849;DHT22;4963;51.444;6.528;2022-10-31T00:36:12;15.30;99.90
9849;DHT22;4963;51.444;6.528;2022-10-31T00:38:39;15.30;99.90
9849;DHT22;4963;51.444;6.528;2022-10-31T00:41:07;15.30;99.90
9849;DHT22;4963;51.444;6.528;2022-10-31T00:43:34;15.30;99.90
9849;DHT22;4963;51.444;6.528;2022-10-31T00:46:01;15.30;99.90
9849;DHT22;4963;51.444;6.528;2022-10-31T00:48:28;15.20;99.90
9849;DHT22;4963;51.444;6.528;2022-10-31T00:50:55;15.20;99.90
9849;DHT22;4963;51.444;6.528;2022-10-31T00:53:22;15.20;99.90
9849;DHT22;4963;51.444;6.528;2022-10-31T00:55:49;15.20;99.90
9849;DHT22;4963;51.444;6.528;2022-10-31T00:58:17;15.20;99.90
9849;DHT22;4963;51.444;6.528;2022-10-31T01:00:44;15.20;99.90
9849;DHT22;4963;51.444;6.528;2022-10-31T01:03:10;15.20;99.90
9849;DHT22;4963;51.444;6.528;2022-10-31T01:05:37;15.10;99.90
9849;DHT22;4963;51.444;6.528;2022-10-31T01:08:04;15.10;99.90
9849;DHT22;4963;51.444;6.528;2022-10-31T01:10:31;15.00;99.90
9849;DHT22;4963;51.444;6.528;2022-10-31T01:12:58;15.00;99.90
9849;DHT22;4963;51.444;6.528;2022-10-31T01:15:26;14.90;99.90
9849;DHT22;4963;51.444;6.528;2022-10-31T01:17:53;14.90;99.90
9849;DHT22;4963;51.444;6.528;2022-10-31T01:20:20;14.90;99.90
9849;DHT22;4963;51.444;6.528;2022-10-31T01:22:46;14.90;99.90
9849;DHT22;4963;51.444;6.528;2022-10-31T01:25:13;14.80;99.90
9849;DHT22;4963;51.444;6.528;2022-10-31T01:27:40;14.80;99.90
9849;DHT22;4963;51.444;6.528;2022-10-31T01:30:08;14.70;99.90
9849;DHT22;4963;51.444;6.528;2022-10-31T01:32:36;14.70;99.90
9849;DHT22;4963;51.444;6.528;2022-10-31T01:35:03;14.80;99.90
9849;DHT22;4963;51.444;6.528;2022-10-31T01:37:31;14.70;99.90
9849;DHT22;4963;51.444;6.528;2022-10-31T01:39:57;14.70;99.90
9849;DHT22;4963;51.444;6.528;2022-10-31T01:42:24;14.70;99.90
9849;DHT22;4963;51.444;6.528;2022-10-31T01:44:55;14.70;99.90
9849;DHT22;4963;51.444;6.528;2022-10-31T01:47:39;14.70;99.90
9849;DHT22;4963;51.444;6.528;2022-10-31T01:50:13;14.70;99.90
9849;DHT22;4963;51.444;6.528;2022-10-31T01:52:42;14.70;99.90
9849;DHT22;4963;51.444;6.528;2022-10-31T01:55:13;14.60;99.90
9849;DHT22;4963;51.444;6.528;2022-10-31T01:57:45;14.60;99.90
9849;DHT22;4963;51.444;6.528;2022-10-31T02:00:13;14.60;99.90
9849;DHT22;4963;51.444;6.528;2022-10-31T02:02:42;14.50;99.90
9849;DHT22;4963;51.444;6.528;2022-10-31T02:05:14;14.50;99.90
9849;DHT22;4963;51.444;6.528;2022-10-31T02:07:47;14.50;99.90
9849;DHT22;4963;51.444;6.528;2022-10-31T02:10:15;14.50;99.90
9849;DHT22;4963;51.444;6.528;2022-10-31T02:12:43;14.50;99.90
9849;DHT22;4963;51.444;6.528;2022-10-31T02:15:11;14.40;99.90
9849;DHT22;4963;51.444;6.528;2022-10-31T02:17:38;14.30;99.90
9849;DHT22;4963;51.444;6.528;2022-10-31T02:20:13;14.30;99.90
9849;DHT22;4963;51.444;6.528;2022-10-31T02:26:02;14.30;99.90
9849;DHT22;4963;51.444;6.528;2022-10-31T02:28:46;14.20;99.90
9849;DHT22;4963;51.444;6.528;2022-10-31T02:31:26;14.20;99.90
9849;DHT22;4963;51.444;6.528;2022-10-31T02:33:58;14.20;99.90
9849;DHT22;4963;51.444;6.528;2022-10-31T02:36:28;14.20;99.90
9849;DHT22;4963;51.444;6.528;2022-10-31T02:39:05;14.10;99.90
9849;DHT22;4963;51.444;6.528;2022-10-31T02:41:41;14.10;99.90
9849;DHT22;4963;51.444;6.528;2022-10-31T02:44:16;14.10;99.90
9849;DHT22;4963;51.444;6.528;2022-10-31T02:46:49;14.10;99.90
9849;DHT22;4963;51.444;6.528;2022-10-31T02:49:23;14.10;99.90
9849;DHT22;4963;51.444;6.528;2022-10-31T02:51:51;14.10;99.90
9849;DHT22;4963;51.444;6.528;2022-10-31T02:54:19;14.00;99.90
9849;DHT22;4963;51.444;6.528;2022-10-31T02:56:49;14.00;99.90
9849;DHT22;4963;51.444;6.528;2022-10-31T02:59:17;14.00;99.90
9849;DHT22;4963;51.444;6.528;2022-10-31T03:02:02;14.00;99.90
9849;DHT22;4963;51.444;6.528;2022-10-31T03:04:46;14.00;99.90
9849;DHT22;4963;51.444;6.528;2022-10-31T03:07:23;14.00;99.90
9849;DHT22;4963;51.444;6.528;2022-10-31T03:10:03;14.00;99.90
9849;DHT22;4963;51.444;6.528;2022-10-31T03:12:37;14.00;99.90
9849;DHT22;4963;51.444;6.528;2022-10-31T03:15:13;14.00;99.90
9849;DHT22;4963;51.444;6.528;2022-10-31T03:17:50;13.90;99.90
9849;DHT22;4963;51.444;6.528;2022-10-31T03:20:21;13.90;99.90
9849;DHT22;4963;51.444;6.528;2022-10-31T03:22:51;13.90;99.90
9849;DHT22;4963;51.444;6.528;2022-10-31T03:25:19;13.90;99.90
9849;DHT22;4963;51.444;6.528;2022-10-31T03:27:46;13.90;99.90
9849;DHT22;4963;51.444;6.528;2022-10-31T03:30:14;13.80;99.90
9849;DHT22;4963;51.444;6.528;2022-10-31T03:32:46;13.80;99.90
9849;DHT22;4963;51.444;6.528;2022-10-31T03:35:16;13.80;99.90
9849;DHT22;4963;51.444;6.528;2022-10-31T03:37:44;13.70;99.90
9849;DHT22;4963;51.444;6.528;2022-10-31T03:40:12;13.70;99.90
9849;DHT22;4963;51.444;6.528;2022-10-31T03:42:44;13.70;99.90
9849;DHT22;4963;51.444;6.528;2022-10-31T03:45:14;13.60;99.90
9849;DHT22;4963;51.444;6.528;2022-10-31T03:47:45;13.60;99.90
9849;DHT22;4963;51.444;6.528;2022-10-31T03:50:13;13.50;99.90
9849;DHT22;4963;51.444;6.528;2022-10-31T03:52:44;13.50;99.90
9849;DHT22;4963;51.444;6.528;2022-10-31T03:55:17;13.50;99.90
9849;DHT22;4963;51.444;6.528;2022-10-31T03:57:51;13.40;99.90
9849;DHT22;4963;51.444;6.528;2022-10-31T04:00:19;13.50;99.90
9849;DHT22;4963;51.444;6.528;2022-10-31T04:02:50;13.50;99.90
9849;DHT22;4963;51.444;6.528;2022-10-31T04:05:19;13.40;99.90
9849;DHT22;4963;51.444;6.528;2022-10-31T04:07:48;13.50;99.90
9849;DHT22;4963;51.444;6.528;2022-10-31T04:10:17;13.50;99.90
9849;DHT22;4963;51.444;6.528;2022-10-31T04:12:50;13.50;99.90
9849;DHT22;4963;51.444;6.528;2022-10-31T04:15:19;13.50;99.90
9849;DHT22;4963;51.444;6.528;2022-10-31T04:17:50;13.50;99.90
9849;DHT22;4963;51.444;6.528;2022-10-31T04:20:18;13.50;99.90
9849;DHT22;4963;51.444;6.528;2022-10-31T04:22:55;13.50;99.90
9849;DHT22;4963;51.444;6.528;2022-10-31T04:25:22;13.50;99.90
9849;DHT22;4963;51.444;6.528;2022-10-31T04:27:49;13.50;99.90
9849;DHT22;4963;51.444;6.528;2022-10-31T04:30:16;13.50;99.90
9849;DHT22;4963;51.444;6.528;2022-10-31T04:32:43;13.50;99.90
9849;DHT22;4963;51.444;6.528;2022-10-31T04:35:11;13.60;99.90
9849;DHT22;4963;51.444;6.528;2022-10-31T04:37:38;13.60;99.90
9849;DHT22;4963;51.444;6.528;2022-10-31T04:40:06;13.60;99.90
9849;DHT22;4963;51.444;6.528;2022-10-31T04:42:33;13.60;99.90
9849;DHT22;4963;51.444;6.528;2022-10-31T04:45:00;13.60;99.90
9849;DHT22;4963;51.444;6.528;2022-10-31T04:47:26;13.60;99.90
9849;DHT22;4963;51.444;6.528;2022-10-31T04:49:53;13.60;99.90
9849;DHT22;4963;51.444;6.528;2022-10-31T04:52:22;13.60;99.90
9849;DHT22;4963;51.444;6.528;2022-10-31T04:54:48;13.60;99.90
9849;DHT22;4963;51.444;6.528;2022-10-31T04:57:15;13.60;99.90
9849;DHT22;4963;51.444;6.528;2022-10-31T04:59:42;13.50;99.90
9849;DHT22;4963;51.444;6.528;2022-10-31T05:02:09;13.50;99.90
9849;DHT22;4963;51.444;6.528;2022-10-31T05:04:35;13.50;99.90
9849;DHT22;4963;51.444;6.528;2022-10-31T05:07:02;13.50;99.90
9849;DHT22;4963;51.444;6.528;2022-10-31T05:09:31;13.50;99.90
9849;DHT22;4963;51.444;6.528;2022-10-31T05:11:57;13.50;99.90
9849;DHT22;4963;51.444;6.528;2022-10-31T05:14:24;13.50;99.90
9849;DHT22;4963;51.444;6.528;2022-10-31T05:16:51;13.40;99.90
9849;DHT22;4963;51.444;6.528;2022-10-31T05:19:18;13.40;99.90
9849;DHT22;4963;51.444;6.528;2022-10-31T05:21:45;13.40;99.90
9849;DHT22;4963;51.444;6.528;2022-10-31T05:24:11;13.40;99.90
9849;DHT22;4963;51.444;6.528;2022-10-31T05:26:40;13.40;99.90
9849;DHT22;4963;51.444;6.528;2022-10-31T05:29:06;13.30;99.90
9849;DHT22;4963;51.444;6.528;2022-10-31T05:31:33;13.30;99.90
9849;DHT22;4963;51.444;6.528;2022-10-31T05:34:00;13.30;99.90
9849;DHT22;4963;51.444;6.528;2022-10-31T05:36:27;13.30;99.90
9849;DHT22;4963;51.444;6.528;2022-10-31T05:38:54;13.30;99.90
9849;DHT22;4963;51.444;6.528;2022-10-31T05:41:20;13.20;99.90
9849;DHT22;4963;51.444;6.528;2022-10-31T05:43:49;13.20;99.90
9849;DHT22;4963;51.444;6.528;2022-10-31T05:46:15;13.20;99.90
9849;DHT22;4963;51.444;6.528;2022-10-31T05:48:42;13.20;99.90
9849;DHT22;4963;51.444;6.528;2022-10-31T05:51:09;13.20;99.90
9849;DHT22;4963;51.444;6.528;2022-10-31T05:53:36;13.20;99.90
9849;DHT22;4963;51.444;6.528;2022-10-31T05:56:03;13.10;99.90
9849;DHT22;4963;51.444;6.528;2022-10-31T05:58:30;13.10;99.90
9849;DHT22;4963;51.444;6.528;2022-10-31T06:00:58;13.00;99.90
9849;DHT22;4963;51.444;6.528;2022-10-31T06:03:25;13.00;99.90
9849;DHT22;4963;51.444;6.528;2022-10-31T06:05:52;13.00;99.90
9849;DHT22;4963;51.444;6.528;2022-10-31T06:08:18;13.00;99.90
9849;DHT22;4963;51.444;6.528;2022-10-31T06:10:45;13.00;99.90
9849;DHT22;4963;51.444;6.528;2022-10-31T06:13:12;13.00;99.90
9849;DHT22;4963;51.444;6.528;2022-10-31T06:15:39;13.00;99.90
9849;DHT22;4963;51.444;6.528;2022-10-31T06:18:09;13.00;99.90
9849;DHT22;4963;51.444;6.528;2022-10-31T06:20:35;13.00;99.90
9849;DHT22;4963;51.444;6.528;2022-10-31T06:23:02;13.00;99.90
9849;DHT22;4963;51.444;6.528;2022-10-31T06:25:30;12.90;99.90
9849;DHT22;4963;51.444;6.528;2022-10-31T06:27:56;12.90;99.90
9849;DHT22;4963;51.444;6.528;2022-10-31T06:30:23;12.90;99.90
9849;DHT22;4963;51.444;6.528;2022-10-31T06:32:50;12.90;99.90
9849;DHT22;4963;51.444;6.528;2022-10-31T06:35:19;12.90;99.90
9849;DHT22;4963;51.444;6.528;2022-10-31T06:37:51;12.90;99.90
9849;DHT22;4963;51.444;6.528;2022-10-31T06:40:18;12.90;99.90
9849;DHT22;4963;51.444;6.528;2022-10-31T06:42:45;12.90;99.90
9849;DHT22;4963;51.444;6.528;2022-10-31T06:45:12;12.90;99.90
9849;DHT22;4963;51.444;6.528;2022-10-31T06:47:38;12.90;99.90
9849;DHT22;4963;51.444;6.528;2022-10-31T06:50:06;12.90;99.90
9849;DHT22;4963;51.444;6.528;2022-10-31T06:52:34;12.80;99.90
9849;DHT22;4963;51.444;6.528;2022-10-31T06:55:01;12.80;99.90
9849;DHT22;4963;51.444;6.528;2022-10-31T06:57:28;12.80;99.90
9849;DHT22;4963;51.444;6.528;2022-10-31T06:59:55;12.80;99.90
9849;DHT22;4963;51.444;6.528;2022-10-31T07:02:22;12.80;99.90
9849;DHT22;4963;51.444;6.528;2022-10-31T07:04:48;12.80;99.90
9849;DHT22;4963;51.444;6.528;2022-10-31T07:07:15;12.90;99.90
9849;DHT22;4963;51.444;6.528;2022-10-31T07:09:43;12.90;99.90
9849;DHT22;4963;51.444;6.528;2022-10-31T07:12:10;12.90;99.90
9849;DHT22;4963;51.444;6.528;2022-10-31T07:14:39;12.90;99.90
9849;DHT22;4963;51.444;6.528;2022-10-31T07:17:05;12.90;99.90
9849;DHT22;4963;51.444;6.528;2022-10-31T07:19:32;12.90;99.90
9849;DHT22;4963;51.444;6.528;2022-10-31T07:22:00;13.00;99.90
9849;DHT22;4963;51.444;6.528;2022-10-31T07:24:27;13.00;99.90
9849;DHT22;4963;51.444;6.528;2022-10-31T07:26:56;13.00;99.90
9849;DHT22;4963;51.444;6.528;2022-10-31T07:29:23;13.00;99.90
9849;DHT22;4963;51.444;6.528;2022-10-31T07:31:50;13.00;99.90
9849;DHT22;4963;51.444;6.528;2022-10-31T07:34:16;13.10;99.90
9849;DHT22;4963;51.444;6.528;2022-10-31T07:36:43;13.10;99.90
9849;DHT22;4963;51.444;6.528;2022-10-31T07:39:10;13.10;99.90
9849;DHT22;4963;51.444;6.528;2022-10-31T07:41:45;13.10;99.90
9849;DHT22;4963;51.444;6.528;2022-10-31T07:44:12;13.10;99.90
9849;DHT22;4963;51.444;6.528;2022-10-31T07:46:38;13.20;99.90
9849;DHT22;4963;51.444;6.528;2022-10-31T07:49:05;13.30;99.90
9849;DHT22;4963;51.444;6.528;2022-10-31T07:51:32;13.30;99.90
9849;DHT22;4963;51.444;6.528;2022-10-31T07:53:59;13.30;99.90
9849;DHT22;4963;51.444;6.528;2022-10-31T07:56:26;13.30;99.90
9849;DHT22;4963;51.444;6.528;2022-10-31T07:58:54;13.40;99.90
9849;DHT22;4963;51.444;6.528;2022-10-31T08:01:21;13.40;99.90
9849;DHT22;4963;51.444;6.528;2022-10-31T08:03:48;13.30;99.90
9849;DHT22;4963;51.444;6.528;2022-10-31T08:06:15;13.30;99.90
9849;DHT22;4963;51.444;6.528;2022-10-31T08:08:41;13.30;99.90
9849;DHT22;4963;51.444;6.528;2022-10-31T08:11:08;13.40;99.90
9849;DHT22;4963;51.444;6.528;2022-10-31T08:13:35;13.40;99.90
9849;DHT22;4963;51.444;6.528;2022-10-31T08:16:04;13.50;99.90
9849;DHT22;4963;51.444;6.528;2022-10-31T08:18:32;13.50;99.90
9849;DHT22;4963;51.444;6.528;2022-10-31T08:20:59;13.50;99.90
9849;DHT22;4963;51.444;6.528;2022-10-31T08:23:26;13.50;99.90
9849;DHT22;4963;51.444;6.528;2022-10-31T08:25:53;13.60;99.90
9849;DHT22;4963;51.444;6.528;2022-10-31T08:28:20;13.70;99.90
9849;DHT22;4963;51.444;6.528;2022-10-31T08:30:46;13.70;99.90
9849;DHT22;4963;51.444;6.528;2022-10-31T08:33:18;13.70;99.90
9849;DHT22;4963;51.444;6.528;2022-10-31T08:35:45;13.80;99.90
9849;DHT22;4963;51.444;6.528;2022-10-31T08:38:13;13.80;99.90
9849;DHT22;4963;51.444;6.528;2022-10-31T08:40:40;13.90;99.90
9849;DHT22;4963;51.444;6.528;2022-10-31T08:43:12;13.90;99.90
9849;DHT22;4963;51.444;6.528;2022-10-31T08:45:39;13.90;99.90
9849;DHT22;4963;51.444;6.528;2022-10-31T08:48:11;13.90;99.90
9849;DHT22;4963;51.444;6.528;2022-10-31T08:50:41;14.00;99.90
9849;DHT22;4963;51.444;6.528;2022-10-31T08:53:10;14.10;99.90
9849;DHT22;4963;51.444;6.528;2022-10-31T08:55:38;14.10;99.90
9849;DHT22;4963;51.444;6.528;2022-10-31T08:58:07;14.10;99.90
9849;DHT22;4963;51.444;6.528;2022-10-31T09:00:34;14.20;99.90
9849;DHT22;4963;51.444;6.528;2022-10-31T09:03:03;14.20;99.90
9849;DHT22;4963;51.444;6.528;2022-10-31T09:05:31;14.30;99.90
9849;DHT22;4963;51.444;6.528;2022-10-31T09:08:01;14.20;99.90
9849;DHT22;4963;51.444;6.528;2022-10-31T09:10:29;14.30;99.90
9849;DHT22;4963;51.444;6.528;2022-10-31T09:12:56;14.30;99.90
9849;DHT22;4963;51.444;6.528;2022-10-31T09:15:23;14.30;99.90
9849;DHT22;4963;51.444;6.528;2022-10-31T09:17:50;14.40;99.90
9849;DHT22;4963;51.444;6.528;2022-10-31T09:20:17;14.40;99.90
9849;DHT22;4963;51.444;6.528;2022-10-31T09:22:44;14.50;99.90
9849;DHT22;4963;51.444;6.528;2022-10-31T09:25:13;14.40;99.90
9849;DHT22;4963;51.444;6.528;2022-10-31T09:27:40;14.40;99.90
9849;DHT22;4963;51.444;6.528;2022-10-31T09:30:08;14.40;99.90
9849;DHT22;4963;51.444;6.528;2022-10-31T09:32:34;14.40;99.90
9849;DHT22;4963;51.444;6.528;2022-10-31T09:35:01;14.50;99.90
9849;DHT22;4963;51.444;6.528;2022-10-31T09:37:28;14.50;99.90
9849;DHT22;4963;51.444;6.528;2022-10-31T09:39:55;14.50;99.90
9849;DHT22;4963;51.444;6.528;2022-10-31T09:42:36;14.50;99.90
9849;DHT22;4963;51.444;6.528;2022-10-31T09:45:07;14.50;99.90
9849;DHT22;4963;51.444;6.528;2022-10-31T09:47:46;14.50;99.90
9849;DHT22;4963;51.444;6.528;2022-10-31T09:50:19;14.40;99.90
9849;DHT22;4963;51.444;6.528;2022-10-31T09:52:54;14.50;99.90
9849;DHT22;4963;51.444;6.528;2022-10-31T09:55:27;14.40;99.90
9849;DHT22;4963;51.444;6.528;2022-10-31T09:57:58;14.40;99.90
9849;DHT22;4963;51.444;6.528;2022-10-31T10:00:28;14.40;99.90
9849;DHT22;4963;51.444;6.528;2022-10-31T10:03:01;14.50;99.90
9849;DHT22;4963;51.444;6.528;2022-10-31T10:05:34;14.60;99.90
9849;DHT22;4963;51.444;6.528;2022-10-31T10:08:09;14.70;99.90
9849;DHT22;4963;51.444;6.528;2022-10-31T10:10:45;14.70;99.90
9849;DHT22;4963;51.444;6.528;2022-10-31T10:13:28;14.80;99.90
9849;DHT22;4963;51.444;6.528;2022-10-31T10:16:07;14.90;99.90
9849;DHT22;4963;51.444;6.528;2022-10-31T10:18:46;15.00;99.90
9849;DHT22;4963;51.444;6.528;2022-10-31T10:21:29;15.10;99.90
9849;DHT22;4963;51.444;6.528;2022-10-31T10:24:09;15.20;99.90
9849;DHT22;4963;51.444;6.528;2022-10-31T10:26:40;15.30;99.90
9849;DHT22;4963;51.444;6.528;2022-10-31T10:29:27;15.40;99.90
9849;DHT22;4963;51.444;6.528;2022-10-31T10:31:59;15.40;99.90
9849;DHT22;4963;51.444;6.528;2022-10-31T10:34:30;15.40;99.90
9849;DHT22;4963;51.444;6.528;2022-10-31T10:37:02;15.40;99.90
9849;DHT22;4963;51.444;6.528;2022-10-31T10:39:38;15.40;99.90
9849;DHT22;4963;51.444;6.528;2022-10-31T10:42:11;15.50;99.90
9849;DHT22;4963;51.444;6.528;2022-10-31T10:44:58;15.50;99.90
9849;DHT22;4963;51.444;6.528;2022-10-31T10:47:47;15.50;99.90
9849;DHT22;4963;51.444;6.528;2022-10-31T10:50:20;15.60;99.90
9849;DHT22;4963;51.444;6.528;2022-10-31T10:52:55;15.60;99.90
9849;DHT22;4963;51.444;6.528;2022-10-31T10:55:32;15.70;99.90
9849;DHT22;4963;51.444;6.528;2022-10-31T10:58:03;15.80;99.90
9849;DHT22;4963;51.444;6.528;2022-10-31T11:00:36;15.80;99.90
9849;DHT22;4963;51.444;6.528;2022-10-31T11:03:04;15.80;99.90
9849;DHT22;4963;51.444;6.528;2022-10-31T11:05:36;15.90;99.90
9849;DHT22;4963;51.444;6.528;2022-10-31T11:08:04;15.90;99.90
9849;DHT22;4963;51.444;6.528;2022-10-31T11:10:31;16.00;99.90
9849;DHT22;4963;51.444;6.528;2022-10-31T11:13:20;16.10;99.90
9849;DHT22;4963;51.444;6.528;2022-10-31T11:15:57;16.10;99.90
9849;DHT22;4963;51.444;6.528;2022-10-31T11:18:26;16.10;99.90
9849;DHT22;4963;51.444;6.528;2022-10-31T11:20:55;16.10;99.90
9849;DHT22;4963;51.444;6.528;2022-10-31T11:23:24;16.10;99.90
9849;DHT22;4963;51.444;6.528;2022-10-31T11:25:54;16.20;99.90
9849;DHT22;4963;51.444;6.528;2022-10-31T11:28:21;16.20;99.90
9849;DHT22;4963;51.444;6.528;2022-10-31T11:30:51;16.20;99.90
9849;DHT22;4963;51.444;6.528;2022-10-31T11:33:25;16.20;99.90
9849;DHT22;4963;51.444;6.528;2022-10-31T11:35:54;16.30;99.90
9849;DHT22;4963;51.444;6.528;2022-10-31T11:38:23;16.30;99.90
9849;DHT22;4963;51.444;6.528;2022-10-31T11:40:53;16.30;99.90
9849;DHT22;4963;51.444;6.528;2022-10-31T11:43:20;16.30;99.90
9849;DHT22;4963;51.444;6.528;2022-10-31T11:45:47;16.30;99.90
9849;DHT22;4963;51.444;6.528;2022-10-31T11:48:16;16.40;99.90
9849;DHT22;4963;51.444;6.528;2022-10-31T11:50:50;16.40;99.90
9849;DHT22;4963;51.444;6.528;2022-10-31T11:53:20;16.40;99.90
9849;DHT22;4963;51.444;6.528;2022-10-31T11:56:00;16.40;99.90
9849;DHT22;4963;51.444;6.528;2022-10-31T11:58:27;16.50;99.90
9849;DHT22;4963;51.444;6.528;2022-10-31T12:00:56;16.60;99.90
9849;DHT22;4963;51.444;6.528;2022-10-31T12:03:42;16.60;99.90
9849;DHT22;4963;51.444;6.528;2022-10-31T12:06:15;16.70;99.90
9849;DHT22;4963;51.444;6.528;2022-10-31T12:08:43;16.80;99.90
9849;DHT22;4963;51.444;6.528;2022-10-31T12:11:20;16.80;99.90
9849;DHT22;4963;51.444;6.528;2022-10-31T12:14:00;16.90;99.90
9849;DHT22;4963;51.444;6.528;2022-10-31T12:16:34;16.90;99.90
9849;DHT22;4963;51.444;6.528;2022-10-31T12:19:05;17.00;99.90
9849;DHT22;4963;51.444;6.528;2022-10-31T12:21:47;17.00;99.90
9849;DHT22;4963;51.444;6.528;2022-10-31T12:24:24;17.10;99.90
9849;DHT22;4963;51.444;6.528;2022-10-31T12:27:03;17.10;99.90
9849;DHT22;4963;51.444;6.528;2022-10-31T12:29:46;17.20;99.90
9849;DHT22;4963;51.444;6.528;2022-10-31T12:32:24;17.20;99.90
9849;DHT22;4963;51.444;6.528;2022-10-31T12:35:18;17.20;99.90
9849;DHT22;4963;51.444;6.528;2022-10-31T12:37:59;17.30;99.90
9849;DHT22;4963;51.444;6.528;2022-10-31T12:40:43;17.30;99.90
9849;DHT22;4963;51.444;6.528;2022-10-31T12:43:24;17.40;99.90
9849;DHT22;4963;51.444;6.528;2022-10-31T12:45:58;17.50;99.90
9849;DHT22;4963;51.444;6.528;2022-10-31T12:48:42;17.50;99.90
9849;DHT22;4963;51.444;6.528;2022-10-31T12:51:17;17.50;99.90
9849;DHT22;4963;51.444;6.528;2022-10-31T12:54:01;17.60;99.90
9849;DHT22;4963;51.444;6.528;2022-10-31T12:56:38;17.70;99.90
9849;DHT22;4963;51.444;6.528;2022-10-31T12:59:12;17.80;99.90
9849;DHT22;4963;51.444;6.528;2022-10-31T13:01:46;17.80;99.90
9849;DHT22;4963;51.444;6.528;2022-10-31T13:04:18;17.80;99.90
9849;DHT22;4963;51.444;6.528;2022-10-31T13:06:48;17.90;99.90
9849;DHT22;4963;51.444;6.528;2022-10-31T13:09:22;17.90;99.90
9849;DHT22;4963;51.444;6.528;2022-10-31T13:11:55;17.90;99.90
9849;DHT22;4963;51.444;6.528;2022-10-31T13:14:25;17.90;99.90
9849;DHT22;4963;51.444;6.528;2022-10-31T13:16:54;18.00;99.90
9849;DHT22;4963;51.444;6.528;2022-10-31T13:19:24;18.00;99.90
9849;DHT22;4963;51.444;6.528;2022-10-31T13:21:57;18.00;99.90
9849;DHT22;4963;51.444;6.528;2022-10-31T13:24:33;18.00;99.90
9849;DHT22;4963;51.444;6.528;2022-10-31T13:27:03;18.00;99.90
9849;DHT22;4963;51.444;6.528;2022-10-31T13:29:38;18.10;99.90
9849;DHT22;4963;51.444;6.528;2022-10-31T13:32:07;18.10;99.90
9849;DHT22;4963;51.444;6.528;2022-10-31T13:34:36;18.10;99.90
9849;DHT22;4963;51.444;6.528;2022-10-31T13:37:12;18.10;99.90
9849;DHT22;4963;51.444;6.528;2022-10-31T13:39:51;18.20;99.90
9849;DHT22;4963;51.444;6.528;2022-10-31T13:42:25;18.20;99.90
9849;DHT22;4963;51.444;6.528;2022-10-31T13:44:55;18.20;99.90
9849;DHT22;4963;51.444;6.528;2022-10-31T13:47:33;18.20;99.90
9849;DHT22;4963;51.444;6.528;2022-10-31T13:50:05;18.20;99.90
9849;DHT22;4963;51.444;6.528;2022-10-31T13:52:32;18.20;99.90
9849;DHT22;4963;51.444;6.528;2022-10-31T13:55:00;18.30;99.90
9849;DHT22;4963;51.444;6.528;2022-10-31T13:57:32;18.20;99.90
9849;DHT22;4963;51.444;6.528;2022-10-31T14:00:02;18.20;99.90
9849;DHT22;4963;51.444;6.528;2022-10-31T14:02:31;18.30;99.90
9849;DHT22;4963;51.444;6.528;2022-10-31T14:05:00;18.30;99.90
9849;DHT22;4963;51.444;6.528;2022-10-31T14:07:29;18.30;99.90
9849;DHT22;4963;51.444;6.528;2022-10-31T14:10:00;18.30;99.90
9849;DHT22;4963;51.444;6.528;2022-10-31T14:12:31;18.30;99.90
9849;DHT22;4963;51.444;6.528;2022-10-31T14:15:03;18.30;99.90
9849;DHT22;4963;51.444;6.528;2022-10-31T14:17:38;18.40;99.90
9849;DHT22;4963;51.444;6.528;2022-10-31T14:25:56;18.30;99.90
9849;DHT22;4963;51.444;6.528;2022-10-31T14:28:33;18.30;99.90
9849;DHT22;4963;51.444;6.528;2022-10-31T14:31:01;18.30;99.90
9849;DHT22;4963;51.444;6.528;2022-10-31T14:33:29;18.30;99.90
9849;DHT22;4963;51.444;6.528;2022-10-31T14:36:02;18.40;99.90
9849;DHT22;4963;51.444;6.528;2022-10-31T14:38:50;18.40;99.90
9849;DHT22;4963;51.444;6.528;2022-10-31T14:41:45;18.40;99.90
9849;DHT22;4963;51.444;6.528;2022-10-31T14:44:40;18.40;99.90
9849;DHT22;4963;51.444;6.528;2022-10-31T14:47:17;18.40;99.90
9849;DHT22;4963;51.444;6.528;2022-10-31T14:50:03;18.40;99.90
9849;DHT22;4963;51.444;6.528;2022-10-31T14:52:32;18.50;99.90
9849;DHT22;4963;51.444;6.528;2022-10-31T14:55:01;18.50;99.90
9849;DHT22;4963;51.444;6.528;2022-10-31T14:57:35;18.50;99.90
9849;DHT22;4963;51.444;6.528;2022-10-31T15:00:06;18.50;99.90
9849;DHT22;4963;51.444;6.528;2022-10-31T15:02:36;18.50;99.90
9849;DHT22;4963;51.444;6.528;2022-10-31T15:05:08;18.50;99.90
9849;DHT22;4963;51.444;6.528;2022-10-31T15:07:35;18.50;99.90
9849;DHT22;4963;51.444;6.528;2022-10-31T15:10:18;18.60;99.90
9849;DHT22;4963;51.444;6.528;2022-10-31T15:12:47;18.60;99.90
9849;DHT22;4963;51.444;6.528;2022-10-31T15:15:18;18.60;99.90
9849;DHT22;4963;51.444;6.528;2022-10-31T15:17:47;18.60;99.90
9849;DHT22;4963;51.444;6.528;2022-10-31T15:20:19;18.50;99.90
9849;DHT22;4963;51.444;6.528;2022-10-31T15:22:47;18.50;99.90
9849;DHT22;4963;51.444;6.528;2022-10-31T15:25:18;18.50;99.90
9849;DHT22;4963;51.444;6.528;2022-10-31T15:27:47;18.40;99.90
9849;DHT22;4963;51.444;6.528;2022-10-31T15:30:18;18.40;99.90
9849;DHT22;4963;51.444;6.528;2022-10-31T15:32:46;18.40;99.90
9849;DHT22;4963;51.444;6.528;2022-10-31T15:35:20;18.40;99.90
9849;DHT22;4963;51.444;6.528;2022-10-31T15:37:48;18.30;99.90
9849;DHT22;4963;51.444;6.528;2022-10-31T15:40:17;18.30;99.90
9849;DHT22;4963;51.444;6.528;2022-10-31T15:42:51;18.30;99.90
9849;DHT22;4963;51.444;6.528;2022-10-31T15:45:20;18.20;99.90
9849;DHT22;4963;51.444;6.528;2022-10-31T15:47:54;18.20;99.90
9849;DHT22;4963;51.444;6.528;2022-10-31T15:50:27;18.20;99.90
9849;DHT22;4963;51.444;6.528;2022-10-31T15:52:54;18.10;99.90
9849;DHT22;4963;51.444;6.528;2022-10-31T15:55:24;18.10;99.90
9849;DHT22;4963;51.444;6.528;2022-10-31T15:57:56;18.00;99.90
9849;DHT22;4963;51.444;6.528;2022-10-31T16:00:26;17.90;99.90
9849;DHT22;4963;51.444;6.528;2022-10-31T16:03:05;17.90;99.90
9849;DHT22;4963;51.444;6.528;2022-10-31T16:05:37;17.90;99.90
9849;DHT22;4963;51.444;6.528;2022-10-31T16:08:04;17.90;99.90
9849;DHT22;4963;51.444;6.528;2022-10-31T16:10:33;17.90;99.90
9849;DHT22;4963;51.444;6.528;2022-10-31T16:13:02;17.80;99.90
9849;DHT22;4963;51.444;6.528;2022-10-31T16:15:33;17.80;99.90
9849;DHT22;4963;51.444;6.528;2022-10-31T16:18:01;17.80;99.90
9849;DHT22;4963;51.444;6.528;2022-10-31T16:20:28;17.80;99.90
9849;DHT22;4963;51.444;6.528;2022-10-31T16:22:57;17.80;99.90
9849;DHT22;4963;51.444;6.528;2022-10-31T16:25:27;17.70;99.90
9849;DHT22;4963;51.444;6.528;2022-10-31T16:27:59;17.70;99.90
9849;DHT22;4963;51.444;6.528;2022-10-31T16:30:35;17.70;99.90
9849;DHT22;4963;51.444;6.528;2022-10-31T16:33:05;17.60;99.90